Tillamook, OR

8:55 PM PDT on September 23, 2014 (GMT -0700)
Tillamook | Change Station
CLOSE
Current Station
Airport
Location: Tillamook,
Elevation: 36 ft
Nearby Weather Stations
Active Advisory: Special Statement

Elev 36 ft 45.42 °N, 123.81 °W | Updated 20 minutes ago

Rain
Rain
63 °F
Feels Like 63 °F
N
0
Wind Variable Wind from North

Today
High -- | Low -- °F
--% Chance of Precip.
Yesterday
High -- | Low -- °F
Precip. -- in
7:03 AM 7:10 PM
Waning Crescent, 0% visible
Pressure 29.70 in
Visibility 4.0 miles
Clouds Scattered Clouds 2200 ft
Mostly Cloudy 2900 ft
Overcast 3800 ft
Dew Point 63 °F
Humidity 100%
Rainfall 1.71 in
Snow Depth 0 in , 0 in , 0 in
UV 0 out of 12
Pollen .40 out of 12
Air Quality Not available.
Flu Activity Not available.
METAR KTMK 240335Z AUTO 00000KT 4SM RA SCT022 BKN029 OVC038 17/17 A2970 RMK AO2 P0011

More Conditions Fewer Conditions

Pressure 29.70 in
Visibility 4.0 miles
Clouds Scattered Clouds 2200 ft
Mostly Cloudy 2900 ft
Overcast 3800 ft
Dew Point 63 °F
Humidity 100%
Rainfall 1.71 in
Snow Depth 0 in , 0 in , 0 in
UV 0 out of 12
Pollen .40 out of 12
Air Quality Not available.
Flu Activity Not available.
METAR KTMK 240335Z AUTO 00000KT 4SM RA SCT022 BKN029 OVC038 17/17 A2970 RMK AO2 P0011

More Conditions Fewer Conditions

10-Day Weather Forecast

Almanac

Astronomy

Sep. 23, 2014 Rise Set
Actual Time 7:03 AM PDT 7:10 PM PDT
Civil Twilight 6:33 AM PDT 7:39 PM PDT
Nautical Twilight 5:59 AM PDT 8:14 PM PDT
Astronomical Twilight 5:23 AM PDT 8:49 PM PDT
Moon 6:32 AM PDT (9/23) 6:51 PM PDT (9/23)
Length of Visible Light 13h 06m
Length of Day
12h 07m
Tomorrow will be 3m 9s shorter.
Waning Crescent, 0% of the Moon is Illuminated
Today
Waning Crescent
Sep 24
New
Oct 1
First Quarter
Oct 8
Full
Oct 15
Last Quarter

Today's Extremes

State Highs State Lows

Community

WunderPhotos

Upload Photos

1,755,878 photos uploaded!

WunderBlogs® & News

Nearby

Snow Depth

Station Depth Elevation
Fish Lake 0 in 4665 ft
Cold Springs Camp 0 in 6100 ft
Gerber Reservoir 0 in 4850 ft
Fish Creek 0 in 7900 ft
Lucky Strike 2 in 5050 ft

Earthquake Activity

City Distance Mag. Time & Date
No recent earthquake activity has been reported nearby.
Minimum magnitude displayed is 2.5.

Coastal Water Temperatures

Place Temperature
Astoria, OR 64.0 °F
Westport, WA 60.1 °F

Nearby Weather Stations